Time;durP1;ratioP1;P1;durP2;ratioP2;P2;SDS_P1;SDS_P2;PMS_P1;PMS_P2;Temp;Humidity;BMP_temperature;BMP_pressure;BME280_temperature;BME280_humidity;BME280_pressure;Samples;Min_cycle;Max_cycle;Signal;HPM_P1;HPM_P2
2021/10/01 00:00:39;;;;;;;4.38;2.90;;;19.40;85.80;;;;;;5010473;28;20029;-65
2021/10/01 00:03:06;;;;;;;2.53;1.90;;;19.40;85.70;;;;;;4993163;28;20041;-66
2021/10/01 00:05:33;;;;;;;3.67;2.30;;;19.50;85.60;;;;;;5011201;28;20030;-67
2021/10/01 00:08:01;;;;;;;3.55;1.80;;;19.50;85.40;;;;;;5006244;28;20034;-64
2021/10/01 00:10:28;;;;;;;2.83;2.22;;;19.50;85.30;;;;;;5010302;28;20029;-63
2021/10/01 00:12:56;;;;;;;3.40;2.42;;;19.60;85.20;;;;;;5010395;28;20032;-62
2021/10/01 00:15:23;;;;;;;4.45;2.08;;;19.60;85.10;;;;;;5011256;28;20022;-73
2021/10/01 00:17:51;;;;;;;2.80;1.88;;;19.70;85.10;;;;;;4994398;28;20025;-65
2021/10/01 00:20:18;;;;;;;3.50;2.20;;;19.70;84.60;;;;;;4994696;28;20026;-71
2021/10/01 00:22:45;;;;;;;3.58;2.30;;;19.80;84.30;;;;;;5011869;28;20021;-65
2021/10/01 00:25:22;;;;;;;3.92;2.65;;;19.80;84.30;;;;;;5011585;28;20018;-64
2021/10/01 00:27:50;;;;;;;3.95;1.65;;;19.90;82.80;;;;;;5011955;28;20037;-69
2021/10/01 00:30:17;;;;;;;2.47;1.67;;;20.00;82.90;;;;;;5011776;28;20467;-68
2021/10/01 00:32:44;;;;;;;3.00;1.90;;;20.10;82.30;;;;;;5011698;28;20021;-68
2021/10/01 00:35:12;;;;;;;3.33;2.08;;;20.20;83.00;;;;;;5011248;28;20018;-66
2021/10/01 00:37:39;;;;;;;3.25;1.98;;;20.30;83.00;;;;;;5011600;28;20121;-62
2021/10/01 00:40:08;;;;;;;4.65;2.05;;;20.30;82.60;;;;;;5011487;28;20026;-64
2021/10/01 00:42:35;;;;;;;4.97;2.13;;;20.40;83.00;;;;;;5010845;28;20080;-67
2021/10/01 00:45:03;;;;;;;3.35;1.98;;;20.50;83.50;;;;;;4993757;28;20101;-67
2021/10/01 00:47:31;;;;;;;4.72;1.65;;;20.50;81.40;;;;;;5011172;28;20114;-68
2021/10/01 00:49:59;;;;;;;1.70;1.60;;;20.70;81.10;;;;;;5011592;28;20025;-65
2021/10/01 00:52:26;;;;;;;3.60;2.08;;;20.70;81.70;;;;;;5011178;28;20496;-67
2021/10/01 00:54:54;;;;;;;5.32;2.00;;;20.80;81.10;;;;;;4993721;28;20497;-62
2021/10/01 00:57:22;;;;;;;2.47;1.60;;;20.90;79.30;;;;;;4993131;28;20171;-68
2021/10/01 00:59:49;;;;;;;3.25;1.73;;;21.10;79.30;;;;;;5010954;28;20475;-66
2021/10/01 01:02:16;;;;;;;3.70;1.83;;;21.10;78.60;;;;;;5010828;28;20041;-65
2021/10/01 01:04:46;;;;;;;3.53;2.03;;;21.10;79.00;;;;;;5010800;28;20392;-62
2021/10/01 01:07:18;;;;;;;4.82;1.85;;;21.00;79.70;;;;;;5010381;28;20453;-68
2021/10/01 01:09:51;;;;;;;;;;;21.00;79.10;;;;;;4994216;28;20101;-63
2021/10/01 01:12:43;;;;;;;2.55;1.20;;;21.10;79.20;;;;;;5010935;28;19905;-65
2021/10/01 01:15:32;;;;;;;4.45;2.20;;;21.10;78.20;;;;;;5010842;28;20056;-66
2021/10/01 01:18:30;;;;;;;2.95;1.30;;;21.20;78.80;;;;;;5010977;28;20485;-69
2021/10/01 01:20:59;;;;;;;2.85;1.77;;;21.10;79.20;;;;;;5010953;28;20037;-68
2021/10/01 01:23:41;;;;;;;4.63;1.65;;;21.10;79.20;;;;;;5011265;28;20068;-62
2021/10/01 01:26:48;;;;;;;5.05;2.10;;;21.30;76.70;;;;;;4993117;28;20018;-70
2021/10/01 01:29:37;;;;;;;2.78;1.60;;;21.30;78.10;;;;;;5010927;28;20119;-64
2021/10/01 01:32:20;;;;;;;3.22;1.17;;;21.30;78.80;;;;;;5010609;28;20462;-66
2021/10/01 01:34:58;;;;;;;2.63;1.58;;;21.30;77.60;;;;;;5010413;28;20026;-66
2021/10/01 01:37:35;;;;;;;2.80;1.67;;;21.50;77.30;;;;;;5010584;28;20440;-65
2021/10/01 01:40:04;;;;;;;1.80;1.30;;;21.50;77.30;;;;;;5010242;28;20028;-67
2021/10/01 01:42:33;;;;;;;2.72;1.38;;;21.50;77.00;;;;;;5009914;28;20392;-66
2021/10/01 01:45:02;;;;;;;2.45;1.60;;;21.60;75.10;;;;;;5009853;28;20430;-68
2021/10/01 01:47:31;;;;;;;2.15;1.30;;;21.70;76.30;;;;;;5010081;28;20049;-64
2021/10/01 01:50:00;;;;;;;3.05;1.27;;;21.70;74.50;;;;;;5010015;28;20025;-64
2021/10/01 01:52:30;;;;;;;1.58;0.90;;;21.80;75.80;;;;;;5009121;28;20084;-69
2021/10/01 01:55:01;;;;;;;5.50;1.63;;;22.00;72.90;;;;;;5009993;28;20090;-60
2021/10/01 01:57:30;;;;;;;1.67;1.05;;;22.10;72.20;;;;;;5010056;28;20380;-66
2021/10/01 01:59:58;;;;;;;2.90;1.17;;;22.10;74.70;;;;;;5010324;28;20030;-62
2021/10/01 02:02:26;;;;;;;2.38;1.17;;;22.00;74.80;;;;;;5010018;28;20382;-67
2021/10/01 02:04:55;;;;;;;1.38;1.00;;;22.10;73.60;;;;;;5010227;28;20353;-68
2021/10/01 02:07:24;;;;;;;1.83;0.90;;;22.30;72.00;;;;;;5010200;28;20371;-63
2021/10/01 02:09:52;;;;;;;2.95;1.45;;;22.40;71.30;;;;;;4992528;28;20049;-65
2021/10/01 02:12:21;;;;;;;4.65;1.27;;;22.50;71.00;;;;;;5009948;28;20154;-66
2021/10/01 02:14:51;;;;;;;1.35;1.05;;;22.30;73.30;;;;;;5010440;28;20028;-65
2021/10/01 02:17:21;;;;;;;4.07;1.33;;;22.50;70.80;;;;;;5009988;28;20118;-68
2021/10/01 02:19:50;;;;;;;1.70;0.90;;;22.70;68.20;;;;;;5010156;28;20462;-67
2021/10/01 02:22:20;;;;;;;3.83;1.20;;;22.80;69.50;;;;;;4992622;28;20040;-60
2021/10/01 02:24:48;;;;;;;1.88;1.15;;;22.90;67.50;;;;;;4990755;28;20038;-68
2021/10/01 02:27:15;;;;;;;2.53;1.45;;;22.90;69.80;;;;;;5009691;28;20101;-67
2021/10/01 02:29:56;;;;;;;1.75;1.10;;;22.80;70.20;;;;;;5009770;28;20030;-63
2021/10/01 02:32:24;;;;;;;1.37;0.90;;;22.70;71.60;;;;;;5009876;28;20022;-69
2021/10/01 02:34:51;;;;;;;9.85;1.83;;;22.80;70.90;;;;;;5009091;28;20256;-64
2021/10/01 02:37:19;;;;;;;4.18;1.67;;;23.00;69.40;;;;;;4991825;28;20026;-70
2021/10/01 02:39:49;;;;;;;1.60;1.00;;;23.20;69.00;;;;;;5009820;28;20094;-63
2021/10/01 02:42:19;;;;;;;3.08;1.10;;;23.20;68.90;;;;;;5009534;28;20026;-66
2021/10/01 02:44:47;;;;;;;4.00;0.95;;;23.00;69.80;;;;;;5009677;28;20038;-62
2021/10/01 02:47:16;;;;;;;3.05;1.27;;;23.10;68.90;;;;;;5009353;28;20021;-69
2021/10/01 02:49:44;;;;;;;2.05;1.08;;;23.10;69.50;;;;;;5010151;28;20025;-69
2021/10/01 02:52:59;;;;;;;4.22;0.90;;;23.00;70.80;;;;;;5009860;28;20046;-68
2021/10/01 02:55:31;;;;;;;1.67;1.30;;;23.10;68.90;;;;;;4992429;28;20121;-68
2021/10/01 02:58:06;;;;;;;;;;;23.20;68.60;;;;;;5010024;28;20076;-68
2021/10/01 03:00:35;;;;;;;2.75;1.35;;;23.20;68.10;;;;;;5009883;28;19956;-63
2021/10/01 03:03:08;;;;;;;2.55;1.30;;;23.10;70.00;;;;;;4985706;28;20038;-67
2021/10/01 03:05:38;;;;;;;3.35;1.02;;;23.00;69.50;;;;;;5012345;28;20018;-65
2021/10/01 03:08:06;;;;;;;2.33;1.08;;;23.00;70.40;;;;;;5015374;28;20387;-62
2021/10/01 03:10:34;;;;;;;2.08;1.27;;;23.00;70.80;;;;;;5011691;28;20472;-63
2021/10/01 03:13:02;;;;;;;2.58;1.27;;;22.90;69.90;;;;;;5010443;28;20026;-65
2021/10/01 03:15:31;;;;;;;2.10;1.20;;;23.00;70.90;;;;;;5009087;28;20029;-62
2021/10/01 03:17:59;;;;;;;2.42;1.13;;;23.00;70.30;;;;;;5012067;28;20022;-64
2021/10/01 03:20:27;;;;;;;4.10;0.90;;;23.10;70.20;;;;;;5011909;28;20018;-63
2021/10/01 03:22:55;;;;;;;2.92;1.05;;;22.90;71.00;;;;;;5010966;28;20086;-67
2021/10/01 03:25:23;;;;;;;5.57;1.10;;;22.90;70.40;;;;;;5007805;28;20018;-65
2021/10/01 03:27:51;;;;;;;2.80;0.88;;;22.90;70.40;;;;;;5011513;28;20033;-60
2021/10/01 03:30:19;;;;;;;3.53;1.30;;;23.00;70.60;;;;;;5011966;28;20345;-63
2021/10/01 03:32:47;;;;;;;2.80;1.10;;;23.00;69.70;;;;;;5006676;28;20069;-64
2021/10/01 03:35:15;;;;;;;4.32;1.42;;;22.90;71.50;;;;;;5006765;28;20045;-62
2021/10/01 03:37:45;;;;;;;2.70;1.08;;;22.90;71.20;;;;;;5011445;28;20061;-63
2021/10/01 03:40:14;;;;;;;5.90;1.13;;;22.90;70.30;;;;;;5011559;28;20030;-67
2021/10/01 03:42:42;;;;;;;3.78;1.30;;;22.90;70.00;;;;;;5009855;28;20072;-65
2021/10/01 03:45:11;;;;;;;3.63;1.13;;;23.00;69.80;;;;;;5005587;28;20042;-64
2021/10/01 03:47:38;;;;;;;1.10;1.00;;;22.90;69.50;;;;;;5011710;28;20495;-65
2021/10/01 03:50:07;;;;;;;2.90;1.27;;;22.80;72.00;;;;;;5011793;28;20034;-65
2021/10/01 03:52:34;;;;;;;1.63;1.00;;;22.70;71.30;;;;;;5010802;28;20049;-64
2021/10/01 03:55:04;;;;;;;2.78;1.20;;;22.70;72.50;;;;;;5007481;28;20368;-63
2021/10/01 03:57:32;;;;;;;3.65;1.17;;;22.70;71.10;;;;;;5012423;28;20113;-68
2021/10/01 03:59:59;;;;;;;4.35;1.40;;;22.70;71.60;;;;;;5011202;28;20132;-69
2021/10/01 04:02:27;;;;;;;2.28;1.08;;;22.70;71.70;;;;;;5012426;28;20375;-67
2021/10/01 04:04:54;;;;;;;3.42;1.15;;;22.60;72.50;;;;;;5008423;28;20117;-60
2021/10/01 04:07:21;;;;;;;3.20;1.33;;;22.60;71.00;;;;;;5008991;28;20026;-65
2021/10/01 04:09:49;;;;;;;2.03;1.00;;;22.60;72.10;;;;;;5009655;28;20108;-59
2021/10/01 04:12:16;;;;;;;3.08;1.00;;;22.60;72.60;;;;;;5010356;28;20592;-59
2021/10/01 04:14:44;;;;;;;1.95;1.10;;;22.50;73.60;;;;;;5009332;28;20036;-64
2021/10/01 04:17:11;;;;;;;4.53;1.27;;;22.60;72.30;;;;;;5004624;28;20022;-65
2021/10/01 04:19:39;;;;;;;3.95;0.98;;;22.70;71.30;;;;;;5010479;28;20091;-58
2021/10/01 04:22:06;;;;;;;2.55;1.33;;;22.70;70.80;;;;;;5010231;28;20032;-64
2021/10/01 04:24:33;;;;;;;7.00;1.48;;;22.80;70.70;;;;;;5009213;28;20083;-62
2021/10/01 04:27:01;;;;;;;2.22;1.02;;;22.70;70.70;;;;;;4987196;28;20026;-58
2021/10/01 04:29:29;;;;;;;1.73;0.95;;;22.60;73.00;;;;;;5010126;28;20053;-62
2021/10/01 04:31:56;;;;;;;2.05;1.08;;;22.50;73.50;;;;;;5009998;28;20025;-65
2021/10/01 04:34:24;;;;;;;3.88;1.00;;;22.60;72.70;;;;;;5009208;28;20026;-67
2021/10/01 04:36:51;;;;;;;1.58;1.20;;;22.70;69.90;;;;;;5005407;28;20077;-61
2021/10/01 04:39:19;;;;;;;2.60;1.48;;;22.70;72.00;;;;;;5010288;28;20053;-64
2021/10/01 04:41:46;;;;;;;6.50;1.88;;;22.80;69.20;;;;;;4993134;28;20030;-63
2021/10/01 04:44:14;;;;;;;6.68;2.60;;;22.80;71.80;;;;;;5009459;28;20041;-67
2021/10/01 04:46:41;;;;;;;6.20;2.80;;;22.90;69.20;;;;;;4988054;28;20026;-65
2021/10/01 04:49:08;;;;;;;6.57;2.03;;;22.90;72.20;;;;;;5010172;28;20464;-63
2021/10/01 04:51:36;;;;;;;4.28;2.40;;;22.80;72.30;;;;;;5011151;28;20091;-68
2021/10/01 04:54:03;;;;;;;3.88;2.40;;;22.70;73.20;;;;;;5010444;28;20079;-62
2021/10/01 04:56:31;;;;;;;7.80;2.63;;;22.70;72.90;;;;;;5004878;28;20076;-66
2021/10/01 04:58:58;;;;;;;3.42;2.10;;;22.70;71.70;;;;;;4992765;28;20056;-61
2021/10/01 05:01:26;;;;;;;4.22;2.15;;;22.70;71.90;;;;;;5009574;28;20030;-63
2021/10/01 05:03:54;;;;;;;4.30;2.25;;;22.70;72.60;;;;;;5008818;28;20045;-61
2021/10/01 05:06:21;;;;;;;4.90;2.38;;;22.70;72.80;;;;;;5004474;28;20049;-63
2021/10/01 05:08:49;;;;;;;3.63;2.17;;;22.70;71.80;;;;;;5010356;28;20090;-67
2021/10/01 05:11:16;;;;;;;4.03;2.35;;;22.70;72.00;;;;;;5009145;28;20065;-64
2021/10/01 05:13:43;;;;;;;5.55;2.28;;;22.60;73.40;;;;;;5008400;28;20069;-59
2021/10/01 05:16:11;;;;;;;3.63;2.15;;;22.60;73.90;;;;;;5003501;28;20018;-64
2021/10/01 05:18:38;;;;;;;6.45;2.47;;;22.60;74.20;;;;;;5009330;28;20110;-63
2021/10/01 05:21:06;;;;;;;6.25;2.10;;;22.60;73.70;;;;;;5009000;28;20022;-61
2021/10/01 05:23:33;;;;;;;6.43;2.50;;;22.60;73.80;;;;;;4976402;28;20104;-64
2021/10/01 05:26:01;;;;;;;5.32;2.42;;;22.50;74.30;;;;;;5005697;28;20378;-66
2021/10/01 05:28:28;;;;;;;4.40;2.10;;;22.50;74.40;;;;;;5003426;28;20033;-66
2021/10/01 05:30:56;;;;;;;3.08;1.92;;;22.40;75.80;;;;;;5006875;28;20033;-65
2021/10/01 05:33:23;;;;;;;3.80;1.90;;;22.40;76.10;;;;;;5009663;28;20022;-69
2021/10/01 05:35:51;;;;;;;4.68;1.90;;;22.30;75.60;;;;;;5010311;28;20026;-62
2021/10/01 05:38:18;;;;;;;3.90;2.05;;;22.40;75.60;;;;;;5010351;28;20026;-66
2021/10/01 05:40:46;;;;;;;3.97;2.08;;;22.40;75.80;;;;;;5010151;28;20586;-62
2021/10/01 05:43:14;;;;;;;4.93;2.58;;;22.30;76.10;;;;;;5009746;28;20052;-67
2021/10/01 05:45:41;;;;;;;5.60;2.10;;;22.10;76.50;;;;;;5009979;28;20109;-65
2021/10/01 05:48:11;;;;;;;3.83;1.98;;;22.10;77.00;;;;;;5010439;28;20041;-62
2021/10/01 05:50:42;;;;;;;5.88;2.33;;;22.00;77.20;;;;;;5009621;28;20033;-69
2021/10/01 05:53:25;;;;;;;6.28;2.28;;;22.00;77.30;;;;;;5009993;28;20061;-58
2021/10/01 05:55:52;;;;;;;9.50;2.05;;;22.00;77.80;;;;;;5010614;28;20499;-56
2021/10/01 05:58:20;;;;;;;5.72;2.03;;;21.90;78.40;;;;;;5010406;28;20105;-56
2021/10/01 06:00:48;;;;;;;5.68;2.15;;;21.90;78.50;;;;;;5009808;28;20029;-59
2021/10/01 06:03:17;;;;;;;9.98;1.70;;;21.90;78.60;;;;;;5009660;28;20065;-57
2021/10/01 06:05:44;;;;;;;6.30;2.17;;;21.80;78.90;;;;;;5010310;28;20056;-56
2021/10/01 06:08:12;;;;;;;5.85;2.50;;;21.80;79.10;;;;;;5009833;28;20098;-55
2021/10/01 06:10:39;;;;;;;6.55;2.38;;;21.80;79.20;;;;;;5010094;28;20034;-54
2021/10/01 06:13:06;;;;;;;5.18;1.90;;;21.80;79.10;;;;;;4992366;28;20054;-60
2021/10/01 06:15:34;;;;;;;4.60;2.17;;;21.70;79.00;;;;;;5010035;28;20022;-56
2021/10/01 06:18:01;;;;;;;6.60;2.55;;;21.70;79.40;;;;;;5010135;28;20033;-58
2021/10/01 06:20:29;;;;;;;6.85;2.58;;;21.60;79.90;;;;;;5010212;28;20030;-59
2021/10/01 06:22:56;;;;;;;6.70;2.28;;;21.60;80.10;;;;;;5009710;28;20026;-57
2021/10/01 06:25:24;;;;;;;7.00;2.28;;;21.60;80.50;;;;;;4992656;28;20388;-55
2021/10/01 06:27:53;;;;;;;11.82;2.05;;;21.50;80.70;;;;;;5009911;28;20018;-56
2021/10/01 06:30:20;;;;;;;5.78;1.90;;;21.50;80.70;;;;;;5009380;28;20030;-60
2021/10/01 06:32:48;;;;;;;6.63;2.28;;;21.50;80.70;;;;;;5009435;28;20373;-59
2021/10/01 06:35:15;;;;;;;6.15;2.00;;;21.50;81.20;;;;;;5009728;28;20086;-61
2021/10/01 06:37:42;;;;;;;6.90;2.13;;;21.40;81.30;;;;;;5009661;28;20102;-56
2021/10/01 06:40:10;;;;;;;4.80;1.95;;;21.40;81.60;;;;;;4995128;28;20429;-59
2021/10/01 06:42:41;;;;;;;7.35;1.80;;;21.40;81.40;;;;;;4995861;28;20026;-60
2021/10/01 06:45:16;;;;;;;5.43;1.85;;;21.40;81.40;;;;;;5007374;28;20029;-58
2021/10/01 06:48:06;;;;;;;5.03;2.08;;;21.40;81.30;;;;;;5010372;28;20028;-60
2021/10/01 08:19:23;;;;;;;7.85;4.95;;;19.70;87.50;;;;;;4994663;28;20041;-67
2021/10/01 08:21:53;;;;;;;11.10;4.97;;;19.70;87.70;;;;;;5008294;28;20334;-56
2021/10/01 08:24:21;;;;;;;7.82;4.82;;;19.70;88.00;;;;;;5010395;28;20063;-62
2021/10/01 08:26:49;;;;;;;11.50;5.25;;;19.70;88.10;;;;;;5003187;28;20040;-61
2021/10/01 08:29:19;;;;;;;7.13;4.88;;;19.60;88.00;;;;;;5004448;28;20034;-60
2021/10/01 08:31:48;;;;;;;8.68;4.65;;;19.60;88.00;;;;;;5010491;28;20040;-55
2021/10/01 08:34:17;;;;;;;8.68;5.13;;;19.60;88.00;;;;;;5004342;28;20026;-61
2021/10/01 08:36:45;;;;;;;7.05;4.80;;;19.60;88.10;;;;;;5003041;28;20380;-62
2021/10/01 08:39:13;;;;;;;6.55;4.03;;;19.60;88.00;;;;;;5010625;28;20071;-65
2021/10/01 08:41:41;;;;;;;6.38;4.22;;;19.60;88.00;;;;;;5008300;28;20049;-56
2021/10/01 08:44:09;;;;;;;7.55;4.88;;;19.60;88.10;;;;;;5007549;28;20030;-60
2021/10/01 08:46:37;;;;;;;7.82;4.97;;;19.60;88.20;;;;;;5005189;28;20065;-60
2021/10/01 08:49:08;;;;;;;7.15;4.18;;;19.60;88.20;;;;;;5010544;28;20108;-61
2021/10/01 08:51:37;;;;;;;9.68;5.03;;;19.60;88.20;;;;;;5010680;28;20046;-60
2021/10/01 08:54:07;;;;;;;5.15;3.70;;;19.50;87.90;;;;;;5010851;28;20060;-60
2021/10/01 08:56:35;;;;;;;8.20;4.30;;;19.50;88.00;;;;;;5003357;28;20083;-59
2021/10/01 08:59:03;;;;;;;6.90;4.55;;;19.60;88.00;;;;;;5011133;28;20082;-60
2021/10/01 09:01:31;;;;;;;8.13;4.75;;;19.60;87.80;;;;;;5010299;28;20049;-62
2021/10/01 09:04:34;;;;;;;5.47;3.78;;;19.60;87.80;;;;;;5011614;28;20091;-61
2021/10/01 09:07:03;;;;;;;8.32;4.72;;;19.60;87.70;;;;;;4927494;28;20067;-60
2021/10/01 09:09:44;;;;;;;7.32;4.05;;;19.60;87.70;;;;;;4991938;28;20041;-59
2021/10/01 09:12:15;;;;;;;7.15;4.03;;;19.60;87.60;;;;;;5012820;28;20061;-62
2021/10/01 09:14:45;;;;;;;8.18;4.15;;;19.50;87.60;;;;;;5006745;28;20022;-54
2021/10/01 09:17:18;;;;;;;8.40;4.50;;;19.50;87.60;;;;;;5010044;28;20038;-59
2021/10/01 09:19:46;;;;;;;9.65;4.03;;;19.50;87.50;;;;;;5009733;28;20054;-68
2021/10/01 09:22:35;;;;;;;7.60;4.30;;;19.50;87.50;;;;;;4990036;28;20025;-67
2021/10/01 09:25:09;;;;;;;5.07;3.55;;;19.50;87.50;;;;;;5004580;28;20038;-66
2021/10/01 09:28:01;;;;;;;7.63;3.97;;;19.50;87.50;;;;;;4994039;28;20115;-58
2021/10/01 09:31:02;;;;;;;6.22;3.70;;;19.50;87.50;;;;;;5008662;28;20507;-60
2021/10/01 09:33:30;;;;;;;5.30;3.60;;;19.40;87.50;;;;;;4988061;28;20095;-56
2021/10/01 09:36:09;;;;;;;9.30;3.85;;;19.40;87.50;;;;;;5005115;28;20060;-60
2021/10/01 09:38:40;;;;;;;8.18;4.55;;;19.40;87.60;;;;;;5005938;28;20103;-60
2021/10/01 09:41:36;;;;;;;7.28;3.90;;;19.40;87.50;;;;;;5008935;28;20030;-60
2021/10/01 09:44:05;;;;;;;5.60;3.33;;;19.30;87.50;;;;;;5009336;28;20073;-63
2021/10/01 09:46:50;;;;;;;6.47;3.78;;;19.30;88.50;;;;;;4998878;28;20022;-59
2021/10/01 09:49:29;;;;;;;6.35;3.53;;;19.30;88.40;;;;;;5007568;28;20033;-63
2021/10/01 09:51:57;;;;;;;5.68;3.50;;;19.30;88.10;;;;;;5010297;28;20152;-56
2021/10/01 09:54:27;;;;;;;6.05;3.50;;;19.30;87.90;;;;;;4991466;28;20439;-62
2021/10/01 09:57:00;;;;;;;9.50;3.85;;;19.30;87.80;;;;;;5005423;28;20018;-64
2021/10/01 09:59:30;;;;;;;6.50;3.70;;;19.30;87.70;;;;;;5007065;28;20420;-56
2021/10/01 10:02:02;;;;;;;5.38;3.70;;;19.30;87.70;;;;;;5010834;28;20423;-64
2021/10/01 10:04:32;;;;;;;6.55;3.67;;;19.30;87.50;;;;;;5010167;28;20091;-63
2021/10/01 10:07:17;;;;;;;4.20;3.22;;;19.20;87.40;;;;;;5006174;28;20090;-59
2021/10/01 10:09:48;;;;;;;6.30;3.72;;;19.30;87.50;;;;;;5005673;28;20033;-55
2021/10/01 10:12:20;;;;;;;6.93;3.67;;;19.30;87.50;;;;;;5004891;28;20141;-58
2021/10/01 10:14:50;;;;;;;6.22;3.40;;;19.30;87.40;;;;;;5000155;28;20029;-57
2021/10/01 10:17:29;;;;;;;7.65;3.85;;;19.20;87.40;;;;;;5008828;28;20540;-61
2021/10/01 10:20:03;;;;;;;6.65;3.88;;;19.30;87.40;;;;;;5009074;28;20022;-61
2021/10/01 10:22:34;;;;;;;6.10;3.20;;;19.20;87.40;;;;;;5008861;28;20018;-59
2021/10/01 10:25:02;;;;;;;8.47;3.93;;;19.20;87.40;;;;;;5001093;28;21579;-61
2021/10/01 10:27:30;;;;;;;5.95;3.83;;;19.20;87.40;;;;;;5010665;28;20271;-53
2021/10/01 10:29:59;;;;;;;5.90;3.95;;;19.20;87.40;;;;;;5009593;28;20544;-55
2021/10/01 10:32:31;;;;;;;5.63;3.63;;;19.20;87.30;;;;;;5010605;28;20044;-63
2021/10/01 10:35:07;;;;;;;5.18;3.45;;;19.20;87.20;;;;;;5003696;28;20407;-63
2021/10/01 10:37:41;;;;;;;7.93;3.90;;;19.10;87.20;;;;;;5007354;28;20032;-61
2021/10/01 10:40:14;;;;;;;4.10;3.35;;;19.10;87.10;;;;;;5008360;28;20109;-63
2021/10/01 10:42:47;;;;;;;5.60;3.30;;;19.10;87.20;;;;;;5008999;28;20076;-58
2021/10/01 10:45:19;;;;;;;6.60;3.60;;;19.10;87.30;;;;;;5002599;28;20037;-61
2021/10/01 10:47:53;;;;;;;6.75;4.07;;;19.10;87.20;;;;;;5008676;28;20083;-54
2021/10/01 10:50:26;;;;;;;3.83;2.80;;;19.00;87.30;;;;;;5008430;28;20025;-61
2021/10/01 10:53:19;;;;;;;4.57;2.83;;;19.10;87.20;;;;;;5002810;28;20064;-58
2021/10/01 10:56:07;;;;;;;5.30;3.10;;;19.10;87.00;;;;;;5002055;28;20110;-61
2021/10/01 10:58:42;;;;;;;4.38;3.20;;;19.10;87.00;;;;;;5006130;28;20030;-63
2021/10/01 11:01:20;;;;;;;4.85;3.38;;;19.10;87.00;;;;;;4991087;28;20033;-60
2021/10/01 11:03:48;;;;;;;8.60;3.78;;;19.10;86.90;;;;;;5008277;28;20034;-57
2021/10/01 11:06:18;;;;;;;5.43;3.00;;;19.00;87.00;;;;;;5003697;28;20025;-60
2021/10/01 11:08:51;;;;;;;10.65;3.30;;;19.00;86.90;;;;;;5008605;28;20576;-59
2021/10/01 11:11:34;;;;;;;5.22;3.60;;;19.00;87.00;;;;;;5008895;28;20103;-55
2021/10/01 11:14:19;;;;;;;4.70;3.17;;;19.00;87.00;;;;;;5007860;28;20042;-62
2021/10/01 11:17:12;;;;;;;4.78;3.05;;;19.00;87.00;;;;;;4985600;28;20038;-64
2021/10/01 11:19:42;;;;;;;4.95;2.97;;;19.00;87.00;;;;;;5005378;28;20022;-62
2021/10/01 11:22:45;;;;;;;4.18;3.40;;;18.90;87.00;;;;;;5004788;28;20106;-61
2021/10/01 11:25:22;;;;;;;6.65;3.33;;;18.90;86.90;;;;;;4927241;28;20561;-58
2021/10/01 11:27:58;;;;;;;6.68;3.00;;;18.90;87.00;;;;;;5001826;28;20037;-59
2021/10/01 11:30:28;;;;;;;5.03;3.30;;;18.90;87.00;;;;;;5011876;28;20325;-63
2021/10/01 11:33:06;;;;;;;4.13;2.75;;;18.90;87.00;;;;;;5011587;28;20224;-56
2021/10/01 11:35:57;;;;;;;3.58;2.28;;;18.90;87.00;;;;;;5007619;28;20022;-61
2021/10/01 11:38:37;;;;;;;6.70;2.80;;;18.90;87.00;;;;;;5013700;28;20022;-53
2021/10/01 11:41:17;;;;;;;4.45;2.58;;;18.90;87.00;;;;;;5013510;28;20022;-57
2021/10/01 11:43:55;;;;;;;4.90;3.15;;;18.90;86.90;;;;;;5013386;28;20079;-60
2021/10/01 11:46:34;;;;;;;4.28;2.70;;;18.90;86.90;;;;;;5013539;28;20422;-57
2021/10/01 11:49:06;;;;;;;3.08;2.47;;;18.90;86.80;;;;;;5013467;28;20056;-56
2021/10/01 11:51:36;;;;;;;5.57;3.22;;;18.90;86.80;;;;;;5013139;28;20054;-54
2021/10/01 11:54:15;;;;;;;5.90;2.67;;;18.90;86.80;;;;;;5012552;28;20411;-58
2021/10/01 11:57:16;;;;;;;5.07;3.00;;;18.80;86.80;;;;;;5013576;28;20022;-57
2021/10/01 12:00:01;;;;;;;4.20;2.30;;;18.80;86.80;;;;;;5012592;28;20034;-53
2021/10/01 12:02:55;;;;;;;4.55;2.92;;;18.80;86.80;;;;;;5013040;28;20168;-61
2021/10/01 12:05:35;;;;;;;3.72;2.35;;;18.80;87.10;;;;;;5013422;28;20022;-58
2021/10/01 12:08:09;;;;;;;2.92;2.30;;;18.80;86.90;;;;;;5013333;28;20521;-58
2021/10/01 12:10:46;;;;;;;4.03;2.85;;;18.70;87.50;;;;;;5012586;28;20037;-71
2021/10/01 12:13:28;;;;;;;;;;;;;;;;;;;;;
2021/10/01 12:19:05;;;;;;;4.18;2.58;;;18.70;87.20;;;;;;5012389;28;20397;-64
2021/10/01 12:21:35;;;;;;;4.72;2.80;;;18.60;87.20;;;;;;5012858;28;20029;-66
2021/10/01 12:24:12;;;;;;;4.82;2.60;;;18.50;87.20;;;;;;5010588;28;20042;-66
2021/10/01 12:26:41;;;;;;;3.83;2.40;;;18.50;87.30;;;;;;5010587;28;20048;-67
2021/10/01 12:29:23;;;;;;;4.90;2.88;;;18.60;87.30;;;;;;5010921;28;20504;-63
2021/10/01 12:31:58;;;;;;;3.67;2.30;;;18.50;87.30;;;;;;5010629;28;20033;-54
2021/10/01 12:34:47;;;;;;;4.50;2.30;;;18.50;87.30;;;;;;5005759;28;20160;-66
2021/10/01 12:37:21;;;;;;;4.63;2.15;;;18.50;87.20;;;;;;5007777;28;20079;-65
2021/10/01 12:39:55;;;;;;;4.25;2.67;;;18.50;87.20;;;;;;5010671;28;20029;-63
2021/10/01 12:42:28;;;;;;;3.25;2.45;;;18.50;87.30;;;;;;5009514;28;20026;-65
2021/10/01 12:45:28;;;;;;;2.63;2.17;;;18.50;87.30;;;;;;4993298;28;20037;-58
2021/10/01 12:48:27;;;;;;;3.75;2.47;;;18.50;87.20;;;;;;4949341;28;20041;-59
2021/10/01 12:50:54;;;;;;;4.05;2.28;;;18.50;87.20;;;;;;4992116;28;20033;-70
2021/10/01 12:53:32;;;;;;;4.70;2.72;;;18.40;87.00;;;;;;4991903;28;20050;-58
2021/10/01 12:56:18;;;;;;;4.68;2.20;;;18.40;87.00;;;;;;4992043;28;20026;-59
2021/10/01 12:58:45;;;;;;;3.58;2.42;;;18.40;86.90;;;;;;4992188;28;20148;-60
2021/10/01 13:01:19;;;;;;;5.15;2.50;;;18.50;87.00;;;;;;4991869;28;20038;-62
2021/10/01 13:03:48;;;;;;;4.50;2.60;;;18.50;87.00;;;;;;4974617;28;20042;-60
2021/10/01 13:06:31;;;;;;;4.47;2.50;;;18.40;87.00;;;;;;4992587;28;20478;-62
2021/10/01 13:08:58;;;;;;;5.03;2.35;;;18.40;86.90;;;;;;4991183;28;20026;-63
2021/10/01 13:11:26;;;;;;;3.17;2.42;;;18.40;87.00;;;;;;4992192;28;20053;-68
2021/10/01 13:13:53;;;;;;;2.78;2.22;;;18.50;87.10;;;;;;4991910;28;20022;-65
2021/10/01 13:16:27;;;;;;;4.80;2.70;;;18.40;87.00;;;;;;4991829;28;20473;-57
2021/10/01 13:19:12;;;;;;;6.55;2.88;;;18.40;87.10;;;;;;4991868;28;20026;-59
2021/10/01 13:22:00;;;;;;;6.25;2.40;;;18.40;87.10;;;;;;4991826;28;20068;-61
2021/10/01 13:24:31;;;;;;;3.95;2.15;;;18.40;87.20;;;;;;4991824;28;20430;-69
2021/10/01 13:26:58;;;;;;;3.08;2.30;;;18.40;87.30;;;;;;4991555;28;20023;-65
2021/10/01 13:29:25;;;;;;;3.95;2.20;;;18.40;87.30;;;;;;4991661;28;20022;-68
2021/10/01 13:31:58;;;;;;;3.67;2.60;;;18.40;87.30;;;;;;4991372;28;20368;-62
2021/10/01 13:34:28;;;;;;;3.45;2.40;;;18.40;87.40;;;;;;4991768;28;20034;-67
2021/10/01 13:36:55;;;;;;;5.13;2.50;;;18.30;87.40;;;;;;4991238;28;20028;-68
2021/10/01 13:39:22;;;;;;;2.75;2.35;;;18.30;87.60;;;;;;4997113;28;20018;-63
2021/10/01 13:41:53;;;;;;;9.90;2.88;;;18.30;87.60;;;;;;5003626;28;20361;-66
2021/10/01 13:44:23;;;;;;;7.68;2.45;;;18.30;88.40;;;;;;5008708;28;20034;-62
2021/10/01 13:46:50;;;;;;;6.50;2.65;;;18.30;88.90;;;;;;5008503;28;20029;-65
2021/10/01 13:49:18;;;;;;;2.58;2.08;;;18.30;88.30;;;;;;5007574;28;20108;-64
2021/10/01 13:51:45;;;;;;;12.27;2.42;;;18.30;88.40;;;;;;5005539;28;20028;-64
2021/10/01 13:54:12;;;;;;;4.38;2.58;;;18.30;88.40;;;;;;5005708;28;20037;-58
2021/10/01 13:56:40;;;;;;;4.95;2.58;;;18.30;88.50;;;;;;5009525;28;20022;-67
2021/10/01 13:59:10;;;;;;;6.47;2.45;;;18.30;88.40;;;;;;5010196;28;20504;-66
2021/10/01 14:01:38;;;;;;;5.70;2.50;;;18.30;88.30;;;;;;5010991;28;20302;-58
2021/10/01 14:04:06;;;;;;;3.40;2.10;;;18.30;88.20;;;;;;5004138;28;20042;-58
2021/10/01 14:06:33;;;;;;;9.30;2.72;;;18.20;88.00;;;;;;5004779;28;20071;-62
2021/10/01 14:09:01;;;;;;;5.35;2.53;;;18.20;88.00;;;;;;5009395;28;20096;-57
2021/10/01 14:11:28;;;;;;;8.82;2.40;;;18.20;88.00;;;;;;5009921;28;20443;-63
2021/10/01 14:14:16;;;;;;;3.38;1.92;;;18.20;88.00;;;;;;4988884;28;20123;-66
2021/10/01 14:16:46;;;;;;;4.60;2.40;;;18.20;88.00;;;;;;5004499;28;20118;-61
2021/10/01 14:19:13;;;;;;;5.90;2.35;;;18.10;87.80;;;;;;5009292;28;20436;-64
2021/10/01 14:21:40;;;;;;;4.13;2.28;;;18.10;87.80;;;;;;5009379;28;20025;-60
2021/10/01 14:24:08;;;;;;;3.17;1.88;;;18.10;87.90;;;;;;5009003;28;20038;-62
2021/10/01 14:26:35;;;;;;;2.45;2.05;;;18.10;87.90;;;;;;5003916;28;20122;-65
2021/10/01 14:29:04;;;;;;;5.38;2.20;;;18.10;87.90;;;;;;5009403;28;20036;-60
2021/10/01 14:31:32;;;;;;;3.70;2.10;;;18.00;87.90;;;;;;4992004;28;20075;-64
2021/10/01 14:34:00;;;;;;;4.07;2.25;;;18.00;87.80;;;;;;5009439;28;20038;-64
2021/10/01 14:36:27;;;;;;;5.65;2.30;;;18.00;87.80;;;;;;5004876;28;20022;-59
2021/10/01 14:38:55;;;;;;;4.45;2.35;;;18.00;87.90;;;;;;5008781;28;20109;-66
2021/10/01 14:41:22;;;;;;;3.30;2.00;;;18.00;87.80;;;;;;4991675;28;20029;-61
2021/10/01 14:43:50;;;;;;;3.33;2.55;;;17.90;87.80;;;;;;5008721;28;20056;-68